Time;durP1;ratioP1;P1;durP2;ratioP2;P2;SDS_P1;SDS_P2;PMS_P1;PMS_P2;Temp;Humidity;BMP_temperature;BMP_pressure;BME280_temperature;BME280_humidity;BME280_pressure;Samples;Min_cycle;Max_cycle;Signal;HPM_P1;HPM_P2
2021/01/01 00:01:06;;;;;;;18.02;10.25;;;1.60;90.00;;;;;;5015084;28;20129;-72
2021/01/01 00:03:32;;;;;;;16.20;9.70;;;1.60;89.20;;;;;;5010811;28;20489;-73
2021/01/01 00:05:58;;;;;;;13.48;8.50;;;1.60;89.60;;;;;;4999857;28;20532;-73
2021/01/01 00:08:24;;;;;;;16.58;9.00;;;1.70;89.00;;;;;;4999801;28;20044;-72
2021/01/01 00:10:52;;;;;;;15.93;8.95;;;1.70;88.80;;;;;;5009684;28;20068;-72
2021/01/01 00:13:19;;;;;;;13.25;7.47;;;1.70;89.20;;;;;;5012101;28;20049;-72
2021/01/01 00:15:45;;;;;;;12.07;8.63;;;1.80;88.10;;;;;;5017183;28;20387;-72
2021/01/01 00:18:11;;;;;;;10.77;7.47;;;1.90;87.20;;;;;;5009386;28;20117;-73
2021/01/01 00:20:41;;;;;;;12.13;7.50;;;2.00;86.60;;;;;;5005569;28;20038;-73
2021/01/01 00:23:08;;;;;;;12.85;7.47;;;1.90;86.70;;;;;;5006245;28;20076;-73
2021/01/01 00:25:34;;;;;;;12.65;8.27;;;1.90;87.00;;;;;;5018606;28;20076;-72
2021/01/01 00:28:00;;;;;;;13.15;7.93;;;1.90;86.80;;;;;;5022314;28;20066;-72
2021/01/01 00:30:27;;;;;;;13.10;7.88;;;1.80;87.50;;;;;;5013603;28;20050;-73
2021/01/01 00:32:52;;;;;;;13.77;8.38;;;1.80;88.20;;;;;;5012688;28;20100;-73
2021/01/01 00:35:19;;;;;;;12.50;9.07;;;1.80;88.00;;;;;;4998828;28;20424;-72
2021/01/01 00:37:45;;;;;;;11.82;8.52;;;1.80;87.90;;;;;;5006732;28;20034;-73
2021/01/01 00:40:11;;;;;;;14.85;8.27;;;1.70;88.10;;;;;;5011694;28;20096;-73
2021/01/01 00:42:37;;;;;;;12.30;8.55;;;1.70;88.60;;;;;;5008027;28;20053;-73
2021/01/01 00:45:05;;;;;;;13.30;8.40;;;1.70;88.90;;;;;;5009217;28;20045;-73
2021/01/01 00:47:32;;;;;;;12.40;7.88;;;1.70;88.30;;;;;;5009170;28;20544;-73
2021/01/01 00:49:58;;;;;;;14.20;8.15;;;1.60;88.40;;;;;;5007973;28;20409;-72
2021/01/01 00:52:24;;;;;;;13.75;8.57;;;1.60;88.80;;;;;;5008096;28;20044;-73
2021/01/01 00:54:50;;;;;;;14.00;8.77;;;1.60;89.20;;;;;;5011720;28;20084;-73
2021/01/01 00:57:16;;;;;;;11.10;8.25;;;1.60;88.40;;;;;;5008338;28;20046;-72
2021/01/01 00:59:41;;;;;;;13.52;8.82;;;1.60;89.10;;;;;;5010972;28;20059;-73
2021/01/01 01:02:07;;;;;;;13.93;9.80;;;1.50;89.40;;;;;;5010397;28;20045;-72
2021/01/01 01:04:34;;;;;;;17.33;9.85;;;1.50;89.20;;;;;;5010787;28;20045;-73
2021/01/01 01:07:00;;;;;;;14.18;8.38;;;1.50;89.70;;;;;;5010495;28;20038;-73
2021/01/01 01:09:26;;;;;;;16.60;9.23;;;1.40;89.40;;;;;;5005231;28;20030;-73
2021/01/01 01:11:53;;;;;;;12.63;8.65;;;1.50;89.70;;;;;;5011254;28;20512;-73
2021/01/01 01:14:19;;;;;;;14.27;8.68;;;1.50;90.10;;;;;;5012129;28;20058;-73
2021/01/01 01:16:45;;;;;;;14.55;8.93;;;1.50;90.00;;;;;;4997446;28;20065;-73
2021/01/01 01:19:11;;;;;;;12.70;8.88;;;1.50;89.50;;;;;;5010814;28;20092;-74
2021/01/01 01:21:38;;;;;;;13.02;8.30;;;1.60;88.80;;;;;;5014548;28;20042;-74
2021/01/01 01:24:05;;;;;;;11.55;8.38;;;1.60;88.80;;;;;;5012807;28;20046;-75
2021/01/01 01:26:31;;;;;;;12.50;7.97;;;1.60;89.10;;;;;;5015176;28;20038;-74
2021/01/01 01:28:56;;;;;;;10.60;7.43;;;1.60;89.10;;;;;;5009795;28;20108;-72
2021/01/01 01:31:22;;;;;;;11.02;7.50;;;1.60;89.00;;;;;;5012115;28;20040;-72
2021/01/01 01:33:48;;;;;;;11.60;7.80;;;1.70;88.20;;;;;;4998597;28;20138;-72
2021/01/01 01:36:14;;;;;;;10.23;7.20;;;1.80;87.10;;;;;;5004432;28;20048;-72
2021/01/01 01:38:41;;;;;;;10.32;6.57;;;1.80;87.30;;;;;;5002905;28;20046;-72
2021/01/01 01:41:07;;;;;;;9.45;6.50;;;1.90;86.90;;;;;;5015247;28;20046;-72
2021/01/01 01:43:33;;;;;;;13.10;7.15;;;1.90;86.00;;;;;;5008051;28;20042;-72
2021/01/01 01:45:59;;;;;;;10.57;7.70;;;1.90;86.70;;;;;;5007889;28;20575;-72
2021/01/01 01:48:27;;;;;;;11.35;6.70;;;1.90;85.80;;;;;;5013002;28;20485;-72
2021/01/01 01:50:53;;;;;;;12.90;7.63;;;1.90;85.90;;;;;;5009189;28;20037;-72
2021/01/01 01:53:21;;;;;;;12.85;6.47;;;2.00;84.80;;;;;;5001230;28;20129;-72
2021/01/01 01:55:48;;;;;;;14.15;8.88;;;2.00;85.10;;;;;;5005315;28;20385;-72
2021/01/01 01:58:14;;;;;;;17.70;12.30;;;2.00;88.20;;;;;;5007005;28;20050;-73
2021/01/01 02:00:57;;;;;;;15.00;10.43;;;2.00;91.20;;;;;;5004219;28;20046;-71
2021/01/01 02:03:24;;;;;;;11.50;7.68;;;1.90;90.60;;;;;;5019943;23;20050;-72
2021/01/01 02:05:50;;;;;;;11.48;7.47;;;1.90;87.40;;;;;;5017015;28;20062;-72
2021/01/01 02:08:16;;;;;;;9.45;5.95;;;1.90;86.00;;;;;;5010354;28;20088;-73
2021/01/01 02:10:42;;;;;;;9.38;5.78;;;2.00;85.00;;;;;;5016337;28;20041;-73
2021/01/01 02:13:11;;;;;;;7.30;5.22;;;2.10;84.30;;;;;;5013894;28;20122;-73
2021/01/01 02:15:37;;;;;;;9.88;6.63;;;2.00;84.50;;;;;;5008996;28;20103;-73
2021/01/01 02:18:03;;;;;;;10.32;6.05;;;2.00;83.90;;;;;;5013716;28;20061;-73
2021/01/01 02:20:29;;;;;;;8.38;6.07;;;2.10;83.60;;;;;;5014405;28;20045;-73
2021/01/01 02:22:56;;;;;;;9.60;6.32;;;2.00;83.60;;;;;;5012021;28;20416;-72
2021/01/01 02:25:21;;;;;;;11.00;6.88;;;2.00;84.00;;;;;;5010721;28;20092;-72
2021/01/01 02:27:47;;;;;;;9.70;6.32;;;2.00;84.10;;;;;;5006286;28;20116;-72
2021/01/01 02:30:14;;;;;;;12.75;6.90;;;2.00;84.40;;;;;;5012704;28;20081;-73
2021/01/01 02:32:41;;;;;;;10.20;7.05;;;2.00;84.60;;;;;;5013263;28;20057;-73
2021/01/01 02:35:08;;;;;;;11.50;6.88;;;1.90;85.10;;;;;;5012710;28;20046;-73
2021/01/01 02:37:34;;;;;;;11.48;6.90;;;1.90;85.30;;;;;;5008968;28;20038;-72
2021/01/01 02:40:01;;;;;;;11.85;6.78;;;1.90;85.70;;;;;;5015407;28;20033;-73
2021/01/01 02:42:27;;;;;;;16.23;10.32;;;;;;;;;;5015555;28;20117;-72
2021/01/01 02:44:53;;;;;;;10.10;6.13;;;;;;;;;;4997240;28;20092;-73
2021/01/01 02:47:19;;;;;;;9.93;5.93;;;;;;;;;;5011209;28;20116;-72
2021/01/01 02:49:45;;;;;;;8.60;5.70;;;;;;;;;;5011199;28;20076;-73
2021/01/01 02:52:11;;;;;;;7.50;5.50;;;;;;;;;;4995060;28;20056;-73
2021/01/01 02:54:38;;;;;;;9.68;6.43;;;;;;;;;;5006445;28;20473;-73
2021/01/01 02:57:05;;;;;;;10.98;6.93;;;;;;;;;;5013115;28;20045;-73
2021/01/01 02:59:31;;;;;;;11.40;6.60;;;;;;;;;;5010660;28;20049;-72
2021/01/01 03:01:57;;;;;;;13.25;7.80;;;;;;;;;;5010671;28;20046;-73
2021/01/01 03:04:23;;;;;;;17.13;10.57;;;;;;;;;;4991585;28;20047;-72
2021/01/01 03:06:50;;;;;;;24.73;13.48;;;;;;;;;;4993480;28;20154;-72
2021/01/01 03:09:16;;;;;;;21.17;13.38;;;;;;;;;;4993418;28;20042;-72
2021/01/01 03:11:42;;;;;;;22.95;13.65;;;;;;;;;;4994639;28;20134;-72
2021/01/01 03:14:09;;;;;;;22.65;14.27;;;;;;;;;;4988259;28;20121;-73
2021/01/01 03:16:35;;;;;;;24.23;16.15;;;;;;;;;;4990911;28;20074;-72
2021/01/01 03:19:01;;;;;;;24.75;16.13;;;;;;;;;;4988938;28;20073;-72
2021/01/01 03:21:27;;;;;;;24.00;15.93;;;;;;;;;;4990038;28;20048;-72
2021/01/01 03:23:53;;;;;;;25.50;16.52;;;;;;;;;;4994296;28;20042;-73
2021/01/01 03:26:19;;;;;;;23.85;15.38;;;1.90;86.10;;;;;;4992784;28;20038;-72
2021/01/01 03:28:45;;;;;;;25.05;16.05;;;1.50;94.70;;;;;;4993008;28;20038;-72
2021/01/01 03:31:12;;;;;;;24.10;15.35;;;1.40;94.90;;;;;;4992762;28;20121;-72
2021/01/01 03:33:37;;;;;;;26.52;16.80;;;1.30;95.00;;;;;;4993810;28;20085;-73
2021/01/01 03:36:04;;;;;;;24.15;16.38;;;1.30;95.10;;;;;;4992851;28;20042;-73
2021/01/01 03:38:31;;;;;;;27.90;17.58;;;1.20;95.20;;;;;;4992857;28;20444;-73
2021/01/01 03:40:57;;;;;;;23.90;15.20;;;1.20;95.10;;;;;;4992820;28;20042;-72
2021/01/01 03:43:23;;;;;;;23.48;15.93;;;1.30;95.30;;;;;;4992359;28;20437;-73
2021/01/01 03:45:48;;;;;;;25.27;16.85;;;1.30;95.30;;;;;;4992600;28;20069;-72
2021/01/01 03:48:16;;;;;;;25.80;16.52;;;1.30;95.30;;;;;;4997393;28;20396;-72
2021/01/01 03:50:42;;;;;;;26.35;15.27;;;1.30;95.60;;;;;;4996103;28;20043;-73
2021/01/01 03:53:08;;;;;;;19.52;11.50;;;1.30;95.40;;;;;;4990648;28;20065;-74
2021/01/01 03:55:35;;;;;;;18.33;10.75;;;1.30;95.00;;;;;;4992154;28;20043;-74
2021/01/01 03:58:01;;;;;;;16.65;9.82;;;1.40;93.70;;;;;;4992741;28;20448;-74
2021/01/01 04:00:26;;;;;;;17.88;11.73;;;1.50;92.60;;;;;;4993352;28;20070;-74
2021/01/01 04:02:52;;;;;;;17.27;11.77;;;1.50;92.90;;;;;;4993503;28;20528;-74
2021/01/01 04:05:19;;;;;;;18.17;11.98;;;1.60;93.30;;;;;;4992571;28;20116;-74
2021/01/01 04:07:45;;;;;;;18.85;12.98;;;1.60;93.40;;;;;;4993139;28;20126;-74
2021/01/01 04:10:11;;;;;;;26.27;15.45;;;1.50;94.10;;;;;;4992282;28;20471;-74
2021/01/01 04:12:37;;;;;;;24.55;15.20;;;1.40;95.50;;;;;;4989457;28;20446;-75
2021/01/01 04:15:07;;;;;;;23.77;15.13;;;1.40;96.30;;;;;;4985732;28;20034;-75
2021/01/01 04:17:33;;;;;;;22.90;15.38;;;1.30;96.30;;;;;;4992316;28;20070;-75
2021/01/01 04:19:59;;;;;;;24.27;15.20;;;1.30;96.00;;;;;;4989749;28;20081;-75
2021/01/01 04:22:25;;;;;;;28.55;17.33;;;1.30;96.10;;;;;;4994445;28;20030;-74
2021/01/01 04:24:51;;;;;;;27.38;17.25;;;1.30;96.40;;;;;;4988162;28;20117;-74
2021/01/01 04:27:17;;;;;;;22.80;15.65;;;1.20;96.90;;;;;;4993379;28;20469;-75
2021/01/01 04:29:43;;;;;;;24.75;15.75;;;1.10;96.80;;;;;;4993542;28;20046;-72
2021/01/01 04:32:09;;;;;;;26.02;16.67;;;1.20;96.80;;;;;;4993753;28;20073;-72
2021/01/01 04:34:35;;;;;;;27.00;18.13;;;;;;;;;;4991668;28;20034;-73
2021/01/01 04:37:01;;;;;;;26.27;17.00;;;1.10;97.40;;;;;;4982422;28;20052;-72
2021/01/01 04:39:28;;;;;;;23.70;16.75;;;0.90;98.50;;;;;;4993467;28;20441;-72
2021/01/01 04:41:55;;;;;;;23.20;16.08;;;0.80;98.70;;;;;;4993255;28;20061;-72
2021/01/01 04:44:22;;;;;;;22.15;15.23;;;0.80;98.10;;;;;;4993208;28;20046;-73
2021/01/01 04:46:50;;;;;;;24.70;15.15;;;0.90;97.60;;;;;;4989944;28;20038;-72
2021/01/01 04:49:16;;;;;;;21.02;15.20;;;0.90;97.30;;;;;;4990772;28;20390;-73
2021/01/01 04:51:43;;;;;;;21.95;14.93;;;0.90;97.40;;;;;;4990366;28;20102;-73
2021/01/01 04:54:10;;;;;;;22.55;15.43;;;0.90;97.80;;;;;;4994232;28;20030;-73
2021/01/01 04:56:45;;;;;;;23.92;15.82;;;0.80;97.90;;;;;;4989994;28;20093;-73
2021/01/01 04:59:13;;;;;;;29.48;16.92;;;0.90;97.80;;;;;;4992816;28;20141;-73
2021/01/01 05:01:41;;;;;;;27.88;16.98;;;0.80;97.80;;;;;;4994906;28;20517;-73
2021/01/01 05:04:07;;;;;;;26.42;16.85;;;0.90;97.90;;;;;;4994892;28;20510;-72
2021/01/01 05:06:34;;;;;;;22.83;16.08;;;0.80;97.80;;;;;;4997498;28;20117;-72
2021/01/01 05:09:00;;;;;;;26.13;18.00;;;0.80;97.90;;;;;;4995349;28;20046;-72
2021/01/01 05:11:26;;;;;;;26.45;16.80;;;0.80;97.90;;;;;;4996768;28;20108;-72
2021/01/01 05:13:59;;;;;;;24.20;16.30;;;0.80;98.30;;;;;;4996755;28;20066;-73
2021/01/01 05:16:29;;;;;;;26.55;15.93;;;;;;;;;;4992344;28;20042;-73
2021/01/01 05:18:55;;;;;;;27.38;16.63;;;;;;;;;;4999236;28;20042;-73
2021/01/01 05:21:22;;;;;;;24.85;16.17;;;;;;;;;;4998545;28;20046;-73
2021/01/01 05:23:49;;;;;;;24.63;15.98;;;;;;;;;;4996644;28;20038;-73
2021/01/01 05:26:16;;;;;;;25.23;15.73;;;;;;;;;;4996396;28;20049;-73
2021/01/01 05:28:49;;;;;;;28.42;17.05;;;;;;;;;;4995209;28;20049;-73
2021/01/01 05:31:17;;;;;;;24.52;16.33;;;;;;;;;;4994867;28;20042;-73
2021/01/01 05:33:43;;;;;;;23.88;15.90;;;;;;;;;;4995288;28;20077;-73
2021/01/01 05:36:10;;;;;;;23.33;14.90;;;;;;;;;;4996136;28;20043;-72
2021/01/01 05:38:37;;;;;;;22.75;16.80;;;;;;;;;;4995054;28;20401;-73
2021/01/01 05:41:03;;;;;;;22.20;16.02;;;;;;;;;;4996188;28;20042;-73
2021/01/01 05:43:29;;;;;;;23.02;16.00;;;;;;;;;;4996031;28;20049;-75
2021/01/01 05:46:07;;;;;;;22.42;15.73;;;;;;;;;;4994917;28;20073;-75
2021/01/01 05:48:33;;;;;;;27.27;17.80;;;0.60;98.70;;;;;;4994832;28;20521;-75
2021/01/01 05:51:05;;;;;;;26.02;17.38;;;;;;;;;;4993402;28;20046;-74
2021/01/01 05:53:31;;;;;;;23.95;16.70;;;;;;;;;;4994067;28;20133;-73
2021/01/01 05:56:06;;;;;;;23.90;17.15;;;0.40;99.90;;;;;;4995862;28;20093;-72
2021/01/01 05:58:32;;;;;;;32.80;21.02;;;0.10;99.90;;;;;;4991498;28;20049;-73
2021/01/01 06:01:00;;;;;;;32.00;19.02;;;0.00;99.90;;;;;;4993515;28;20044;-73
2021/01/01 06:03:28;;;;;;;29.30;18.98;;;0.10;99.90;;;;;;4994808;28;20406;-73
2021/01/01 06:05:56;;;;;;;27.67;18.02;;;0.10;99.90;;;;;;4989591;28;20034;-73
2021/01/01 06:08:25;;;;;;;27.00;17.90;;;0.20;99.90;;;;;;4991996;28;20074;-74
2021/01/01 06:10:58;;;;;;;24.83;16.60;;;0.30;99.90;;;;;;4982296;28;20038;-75
2021/01/01 06:13:24;;;;;;;27.20;17.03;;;0.30;99.90;;;;;;4994998;28;20053;-75
2021/01/01 06:15:57;;;;;;;23.42;16.17;;;0.30;99.90;;;;;;4994897;28;20035;-75
2021/01/01 06:18:26;;;;;;;22.52;15.40;;;0.40;99.80;;;;;;4991857;28;20046;-74
2021/01/01 06:20:58;;;;;;;25.08;17.15;;;0.40;99.90;;;;;;4983022;28;20031;-74
2021/01/01 06:23:32;;;;;;;22.73;16.77;;;0.40;99.70;;;;;;4994299;28;20042;-74
2021/01/01 06:25:59;;;;;;;24.05;15.85;;;0.50;99.70;;;;;;4995126;28;20085;-75
2021/01/01 06:28:26;;;;;;;21.95;16.90;;;0.50;99.80;;;;;;4993491;28;20049;-72
2021/01/01 06:30:54;;;;;;;25.88;16.05;;;0.50;99.70;;;;;;4995231;28;20092;-73
2021/01/01 06:33:20;;;;;;;25.55;16.77;;;0.50;99.80;;;;;;4988482;28;20043;-75
2021/01/01 06:35:47;;;;;;;26.45;16.15;;;0.50;99.90;;;;;;4993594;28;20121;-74
2021/01/01 06:38:35;;;;;;;23.30;15.88;;;0.40;99.90;;;;;;4994339;28;20065;-75
2021/01/01 06:41:01;;;;;;;22.75;15.80;;;0.40;99.90;;;;;;4987060;28;20116;-75
2021/01/01 06:43:51;;;;;;;22.90;15.35;;;0.40;99.90;;;;;;4987114;28;20066;-74
2021/01/01 06:46:34;;;;;;;23.60;16.10;;;0.40;99.90;;;;;;4990517;28;20122;-75
2021/01/01 06:49:00;;;;;;;23.25;16.05;;;0.40;99.90;;;;;;4988730;28;20038;-75
2021/01/01 06:51:29;;;;;;;25.13;15.73;;;0.40;99.90;;;;;;4992536;28;20034;-75
2021/01/01 06:54:12;;;;;;;22.20;15.77;;;0.30;99.90;;;;;;4988487;28;20061;-75
2021/01/01 06:56:43;;;;;;;24.92;16.45;;;0.40;99.90;;;;;;4991397;28;20058;-74
2021/01/01 06:59:11;;;;;;;25.38;17.58;;;0.30;99.90;;;;;;4991443;28;20048;-73
2021/01/01 07:01:40;;;;;;;23.38;15.82;;;0.30;99.90;;;;;;4993550;28;20034;-73
2021/01/01 07:04:07;;;;;;;22.42;14.73;;;0.30;99.90;;;;;;4994176;28;20399;-72
2021/01/01 07:06:42;;;;;;;23.40;15.73;;;0.30;99.90;;;;;;4993336;28;20042;-73
2021/01/01 07:09:13;;;;;;;24.10;17.15;;;0.30;99.90;;;;;;4993099;28;20048;-72
2021/01/01 07:11:43;;;;;;;24.17;16.88;;;0.30;99.90;;;;;;4988426;28;20093;-73
2021/01/01 07:14:19;;;;;;;24.63;17.05;;;0.20;99.90;;;;;;4992539;28;20046;-73
2021/01/01 07:16:50;;;;;;;32.88;20.17;;;0.30;99.90;;;;;;4993192;28;20141;-73
2021/01/01 07:19:16;;;;;;;31.80;20.80;;;0.30;99.90;;;;;;4989499;28;20041;-72
2021/01/01 07:21:42;;;;;;;28.13;18.83;;;0.40;99.90;;;;;;4990623;28;20042;-73
2021/01/01 07:24:09;;;;;;;29.25;18.52;;;0.40;99.90;;;;;;4992383;28;20482;-73
2021/01/01 07:26:35;;;;;;;26.00;17.20;;;0.40;99.90;;;;;;4990763;28;20041;-72
2021/01/01 07:29:03;;;;;;;31.73;19.25;;;0.50;99.90;;;;;;4991321;28;20460;-73
2021/01/01 07:31:29;;;;;;;28.50;19.63;;;0.50;99.90;;;;;;4994309;28;20034;-73
2021/01/01 07:33:55;;;;;;;29.38;20.85;;;0.50;99.90;;;;;;4988884;28;20378;-73
2021/01/01 07:36:21;;;;;;;35.40;23.02;;;0.60;99.90;;;;;;4993193;28;20030;-73
2021/01/01 07:38:48;;;;;;;31.95;21.13;;;0.50;99.90;;;;;;4989566;28;20142;-73
2021/01/01 07:41:16;;;;;;;34.25;22.08;;;0.60;99.90;;;;;;4987067;28;20064;-72
2021/01/01 07:43:43;;;;;;;33.90;23.58;;;0.60;99.90;;;;;;4979325;28;20486;-73
2021/01/01 07:46:11;;;;;;;35.90;25.13;;;0.70;99.90;;;;;;4986984;28;20405;-72
2021/01/01 07:48:37;;;;;;;35.03;22.95;;;0.70;99.90;;;;;;4992646;28;20088;-72
2021/01/01 07:51:05;;;;;;;33.35;22.73;;;0.70;99.90;;;;;;4990921;28;20050;-73
2021/01/01 07:53:31;;;;;;;29.00;20.60;;;0.80;99.90;;;;;;4981474;28;20494;-73
2021/01/01 07:56:02;;;;;;;26.33;17.70;;;0.80;99.90;;;;;;4991909;28;20061;-72
2021/01/01 07:58:29;;;;;;;27.73;17.95;;;0.70;99.90;;;;;;4992169;28;20038;-75
2021/01/01 08:01:02;;;;;;;27.85;19.13;;;0.70;99.90;;;;;;4991656;28;20038;-75
2021/01/01 08:03:28;;;;;;;23.73;16.48;;;0.70;99.90;;;;;;4993610;28;20048;-74
2021/01/01 08:05:55;;;;;;;28.92;19.58;;;0.70;99.90;;;;;;4989967;28;20393;-73
2021/01/01 08:08:24;;;;;;;28.38;18.13;;;0.70;99.90;;;;;;4991665;28;20038;-72
2021/01/01 08:10:52;;;;;;;25.83;17.48;;;0.70;99.90;;;;;;4991254;28;20038;-72
2021/01/01 08:13:19;;;;;;;26.42;18.33;;;0.70;99.90;;;;;;4990423;28;20043;-72
2021/01/01 08:15:46;;;;;;;24.40;17.85;;;0.70;99.90;;;;;;4989846;28;20042;-72
2021/01/01 08:18:18;;;;;;;29.75;17.60;;;0.70;99.90;;;;;;4992905;28;20045;-73
2021/01/01 08:20:46;;;;;;;23.88;16.52;;;0.70;99.90;;;;;;4987491;28;20045;-75
2021/01/01 08:23:15;;;;;;;27.77;18.83;;;0.80;99.90;;;;;;4983421;28;20038;-75
2021/01/01 08:25:42;;;;;;;28.27;20.45;;;0.80;99.90;;;;;;4977756;28;20073;-74
2021/01/01 08:28:09;;;;;;;39.80;23.98;;;0.90;99.90;;;;;;4995498;28;20034;-74
2021/01/01 08:30:37;;;;;;;40.83;27.42;;;0.90;99.90;;;;;;4995608;28;20191;-75
2021/01/01 08:33:04;;;;;;;45.50;27.23;;;0.90;99.90;;;;;;4995905;28;20046;-75
2021/01/01 08:35:31;;;;;;;41.40;27.67;;;0.90;99.90;;;;;;4992689;28;20035;-74
2021/01/01 08:37:58;;;;;;;43.88;27.83;;;;;;;;;;4995879;28;20042;-72
2021/01/01 08:40:23;;;;;;;37.00;25.10;;;0.90;99.90;;;;;;4992698;28;20486;-74
2021/01/01 08:42:53;;;;;;;43.83;25.88;;;1.00;99.90;;;;;;4995158;28;20089;-75
2021/01/01 08:45:20;;;;;;;44.05;27.75;;;1.00;99.90;;;;;;4991619;28;20030;-74
2021/01/01 08:47:51;;;;;;;36.50;23.88;;;1.00;99.90;;;;;;4989523;28;20034;-74
2021/01/01 08:50:21;;;;;;;37.08;25.25;;;1.00;99.90;;;;;;4990343;28;20541;-74
2021/01/01 08:52:49;;;;;;;37.47;24.05;;;1.10;99.90;;;;;;4995496;28;20034;-74
2021/01/01 08:55:16;;;;;;;33.85;24.95;;;1.10;99.90;;;;;;4993082;28;20113;-74
2021/01/01 08:57:42;;;;;;;37.65;23.88;;;1.10;99.90;;;;;;4997095;28;20042;-74
2021/01/01 09:00:09;;;;;;;35.85;23.23;;;1.10;99.90;;;;;;4996164;28;20034;-74
2021/01/01 09:02:35;;;;;;;34.53;23.25;;;1.20;99.90;;;;;;4995142;28;20149;-74
2021/01/01 09:05:03;;;;;;;31.08;19.73;;;1.20;99.90;;;;;;4996861;28;20414;-75
2021/01/01 09:07:29;;;;;;;25.73;18.75;;;1.30;99.90;;;;;;4987337;28;20129;-75
2021/01/01 09:09:56;;;;;;;36.53;21.95;;;1.30;99.90;;;;;;4994493;28;20458;-75
2021/01/01 09:12:23;;;;;;;354.80;141.95;;;1.30;99.90;;;;;;4995607;28;20046;-75
2021/01/01 09:14:50;;;;;;;400.83;165.63;;;1.30;99.90;;;;;;4989351;28;20035;-75
2021/01/01 09:17:19;;;;;;;61.03;32.08;;;1.30;99.90;;;;;;4993283;28;20486;-75
2021/01/01 09:19:45;;;;;;;29.67;18.63;;;1.30;99.90;;;;;;4985276;28;20034;-74
2021/01/01 09:22:12;;;;;;;24.77;18.13;;;1.40;99.90;;;;;;4996464;28;20363;-72
2021/01/01 09:24:38;;;;;;;24.67;17.05;;;1.30;99.90;;;;;;4994514;28;20096;-72
2021/01/01 09:27:05;;;;;;;32.28;20.63;;;1.40;99.90;;;;;;4991297;28;20129;-72
2021/01/01 09:29:31;;;;;;;31.13;18.70;;;;;;;;;;4991322;28;20054;-75
2021/01/01 09:31:57;;;;;;;32.03;20.88;;;1.40;99.90;;;;;;4991546;28;20098;-75
2021/01/01 09:34:23;;;;;;;29.25;19.00;;;1.50;99.90;;;;;;4992865;28;20453;-75
2021/01/01 09:36:49;;;;;;;26.33;17.60;;;1.50;99.90;;;;;;4987067;28;20048;-72
2021/01/01 09:39:15;;;;;;;29.08;18.85;;;1.50;99.90;;;;;;4991736;28;20494;-75
2021/01/01 09:41:47;;;;;;;27.55;17.83;;;1.60;99.90;;;;;;4988501;28;20051;-75
2021/01/01 09:44:15;;;;;;;26.23;17.65;;;1.60;99.90;;;;;;4993963;28;20042;-72
2021/01/01 09:46:42;;;;;;;28.27;18.10;;;1.60;99.90;;;;;;4994186;28;20386;-75
2021/01/01 09:49:07;;;;;;;23.48;17.45;;;1.70;99.90;;;;;;4994103;28;20050;-75
2021/01/01 09:51:33;;;;;;;26.08;18.05;;;1.60;99.90;;;;;;4993294;28;20062;-75
2021/01/01 09:54:01;;;;;;;28.75;19.30;;;1.60;99.90;;;;;;4994616;28;20141;-75
2021/01/01 09:56:36;;;;;;;24.95;17.83;;;1.60;99.90;;;;;;4995231;28;20057;-75
2021/01/01 09:59:03;;;;;;;30.65;20.70;;;1.60;99.90;;;;;;4994355;28;20034;-75
2021/01/01 10:01:30;;;;;;;27.38;18.50;;;1.60;99.90;;;;;;4995731;28;20092;-75
2021/01/01 10:03:56;;;;;;;27.67;17.33;;;1.70;99.90;;;;;;4992715;28;20054;-75
2021/01/01 10:06:22;;;;;;;27.17;16.65;;;1.70;99.90;;;;;;4989453;28;20043;-72
2021/01/01 10:08:48;;;;;;;27.48;17.17;;;1.70;99.90;;;;;;4994188;28;20035;-72
2021/01/01 10:11:15;;;;;;;22.55;15.30;;;1.60;99.90;;;;;;4994104;28;20038;-74
2021/01/01 10:13:42;;;;;;;22.73;15.45;;;1.50;99.90;;;;;;4994180;28;20043;-75
2021/01/01 10:16:08;;;;;;;26.73;16.77;;;1.50;99.90;;;;;;4992478;28;20022;-75
2021/01/01 10:18:36;;;;;;;25.52;16.05;;;1.50;99.90;;;;;;4992012;28;20061;-72
2021/01/01 10:21:02;;;;;;;26.70;17.52;;;1.50;99.90;;;;;;4992513;28;20529;-75
2021/01/01 10:23:28;;;;;;;26.73;19.42;;;1.50;99.90;;;;;;4989997;28;20031;-75
2021/01/01 10:25:56;;;;;;;30.30;20.10;;;1.60;99.90;;;;;;4981031;28;20490;-75
2021/01/01 10:28:22;;;;;;;27.40;19.23;;;1.50;99.90;;;;;;4983122;28;20045;-76
2021/01/01 10:30:48;;;;;;;22.90;16.23;;;1.50;99.90;;;;;;4982779;28;20038;-75
2021/01/01 10:33:14;;;;;;;26.15;16.85;;;1.50;99.90;;;;;;4982168;28;20058;-75
2021/01/01 10:35:41;;;;;;;23.83;16.05;;;1.60;99.90;;;;;;4982336;28;20477;-75
2021/01/01 10:38:07;;;;;;;32.45;18.85;;;1.60;99.90;;;;;;4981617;28;20137;-76
2021/01/01 10:40:33;;;;;;;29.67;20.40;;;1.60;99.90;;;;;;4980297;28;20566;-76
2021/01/01 10:42:59;;;;;;;28.98;19.60;;;1.50;99.90;;;;;;4981745;28;20533;-76
2021/01/01 10:45:25;;;;;;;26.70;17.83;;;1.40;99.90;;;;;;4981476;28;20031;-76
2021/01/01 10:47:51;;;;;;;28.95;18.52;;;1.50;99.90;;;;;;4983464;28;20034;-76
2021/01/01 10:50:17;;;;;;;26.45;18.27;;;1.50;99.90;;;;;;4980526;28;20046;-73
2021/01/01 10:52:44;;;;;;;25.98;17.25;;;1.60;99.90;;;;;;4983944;28;20150;-76
2021/01/01 10:55:12;;;;;;;23.08;16.45;;;1.60;99.90;;;;;;4981937;28;20034;-76
2021/01/01 10:57:37;;;;;;;24.85;16.48;;;1.70;99.90;;;;;;4983002;28;20801;-75
2021/01/01 11:00:06;;;;;;;23.75;17.23;;;1.80;99.90;;;;;;4983764;28;20055;-76
2021/01/01 11:02:32;;;;;;;24.00;17.10;;;1.80;99.90;;;;;;4980675;28;20061;-76
2021/01/01 11:04:58;;;;;;;24.52;17.33;;;1.90;99.90;;;;;;4980749;28;20046;-76
2021/01/01 11:07:23;;;;;;;24.40;16.90;;;1.80;99.90;;;;;;4981788;28;20097;-76
2021/01/01 11:09:50;;;;;;;20.30;14.40;;;1.80;99.90;;;;;;4983119;28;20117;-76
2021/01/01 11:12:16;;;;;;;22.73;16.65;;;1.80;99.90;;;;;;4983006;28;20073;-75
2021/01/01 11:15:09;;;;;;;25.23;18.08;;;1.90;99.90;;;;;;4983077;28;20090;-76
2021/01/01 12:24:00;;;;;;;18.15;11.77;;;2.80;99.90;;;;;;4980999;28;20588;-76
2021/01/01 12:26:26;;;;;;;21.35;13.32;;;2.80;99.90;;;;;;4981916;28;20066;-76
2021/01/01 12:28:53;;;;;;;19.63;14.07;;;2.70;99.90;;;;;;4983519;28;20486;-76
2021/01/01 12:31:20;;;;;;;20.83;14.48;;;2.80;99.90;;;;;;4983532;28;20042;-73
2021/01/01 12:33:46;;;;;;;21.63;14.57;;;2.80;99.90;;;;;;4984023;28;20038;-73
2021/01/01 12:36:12;;;;;;;22.55;14.93;;;2.70;99.90;;;;;;4981527;28;20039;-75
2021/01/01 12:38:38;;;;;;;22.75;13.65;;;2.80;99.90;;;;;;4981244;28;20112;-75
2021/01/01 12:41:03;;;;;;;;;;;2.80;99.90;;;;;;4982445;28;20043;-76
2021/01/01 12:46:52;;;;;;;19.45;12.50;;;2.80;99.90;;;;;;4986991;28;20461;-75
2021/01/01 12:49:19;;;;;;;18.20;11.32;;;2.90;99.90;;;;;;4983401;28;20118;-75
2021/01/01 12:51:47;;;;;;;19.25;11.98;;;2.80;99.90;;;;;;4980861;28;20054;-75
2021/01/01 12:54:13;;;;;;;15.88;10.80;;;2.80;99.90;;;;;;4981523;28;20093;-75
2021/01/01 12:56:39;;;;;;;14.02;9.57;;;;;;;;;;4975498;28;20039;-75
2021/01/01 12:59:05;;;;;;;13.68;9.32;;;;;;;;;;4969087;28;20051;-75
2021/01/01 13:01:32;;;;;;;14.20;9.30;;;;;;;;;;4968364;28;20043;-73
2021/01/01 13:03:59;;;;;;;13.73;8.90;;;;;;;;;;4967470;28;20059;-73
2021/01/01 13:06:25;;;;;;;14.65;10.38;;;;;;;;;;4968751;28;20039;-73
2021/01/01 13:08:51;;;;;;;17.92;11.15;;;;;;;;;;4969360;28;20394;-73
2021/01/01 13:11:18;;;;;;;14.45;9.90;;;;;;;;;;4972979;28;20042;-73
2021/01/01 13:13:44;;;;;;;13.68;10.80;;;;;;;;;;4975871;28;20133;-73
2021/01/01 13:16:10;;;;;;;16.90;10.82;;;;;;;;;;4976544;28;20043;-73
2021/01/01 13:18:36;;;;;;;15.93;11.25;;;;;;;;;;4976566;28;20049;-75
2021/01/01 13:21:06;;;;;;;16.13;11.98;;;;;;;;;;4976472;28;20050;-73
2021/01/01 13:23:33;;;;;;;18.27;13.35;;;;;;;;;;4978247;28;20493;-73
2021/01/01 13:26:01;;;;;;;19.70;12.95;;;;;;;;;;4976356;28;20038;-75
2021/01/01 13:28:27;;;;;;;16.45;11.38;;;;;;;;;;4977648;28;20042;-76
2021/01/01 13:30:54;;;;;;;23.80;14.55;;;;;;;;;;4977507;28;20109;-75
2021/01/01 13:33:20;;;;;;;18.30;14.60;;;;;;;;;;4977606;28;20054;-76
2021/01/01 13:35:47;;;;;;;;;;;;;;;;;;4977968;28;20038;-77
2021/01/01 13:38:14;;;;;;;17.40;11.88;;;;;;;;;;4977714;28;19912;-75
2021/01/01 13:40:40;;;;;;;17.63;12.82;;;;;;;;;;4977338;28;20486;-75
2021/01/01 13:43:06;;;;;;;15.50;10.55;;;;;;;;;;4976024;28;20065;-75
2021/01/01 13:45:32;;;;;;;15.20;10.32;;;;;;;;;;4975890;28;20529;-75
2021/01/01 13:47:58;;;;;;;13.27;9.50;;;;;;;;;;4970953;28;20169;-75
2021/01/01 13:50:25;;;;;;;16.10;10.82;;;;;;;;;;4971881;28;20043;-74
2021/01/01 13:52:51;;;;;;;16.27;12.05;;;;;;;;;;4972069;28;20039;-74
2021/01/01 13:55:18;;;;;;;14.02;9.80;;;;;;;;;;4973233;28;20466;-74
2021/01/01 13:57:44;;;;;;;18.05;12.10;;;;;;;;;;4976441;28;20514;-75
2021/01/01 14:00:11;;;;;;;15.30;11.73;;;;;;;;;;4975233;28;20526;-75
2021/01/01 14:02:37;;;;;;;20.17;12.23;;;;;;;;;;4971014;28;20138;-75
2021/01/01 14:05:03;;;;;;;17.35;13.32;;;;;;;;;;4972493;28;20074;-73
2021/01/01 14:07:29;;;;;;;19.55;12.90;;;;;;;;;;4972323;28;20129;-73
2021/01/01 14:09:55;;;;;;;18.02;13.00;;;2.90;99.90;;;;;;4971349;28;20039;-72